sensor_id;sensor_type;location;lat;lon;timestamp;temperature;humidity
25991;DHT22;13779;-33.886;151.198;2023-05-18T00:00:17;14.20;99.90
25991;DHT22;13779;-33.886;151.198;2023-05-18T00:02:48;14.20;99.90
25991;DHT22;13779;-33.886;151.198;2023-05-18T00:05:18;14.30;99.90
25991;DHT22;13779;-33.886;151.198;2023-05-18T00:07:49;14.30;99.90
25991;DHT22;13779;-33.886;151.198;2023-05-18T00:10:19;14.30;99.90
25991;DHT22;13779;-33.886;151.198;2023-05-18T00:12:49;14.30;99.90
25991;DHT22;13779;-33.886;151.198;2023-05-18T00:15:19;14.30;99.90
25991;DHT22;13779;-33.886;151.198;2023-05-18T00:17:50;14.30;99.90
25991;DHT22;13779;-33.886;151.198;2023-05-18T00:20:21;14.30;99.90
25991;DHT22;13779;-33.886;151.198;2023-05-18T00:22:54;14.30;99.90
25991;DHT22;13779;-33.886;151.198;2023-05-18T00:25:25;14.40;99.90
25991;DHT22;13779;-33.886;151.198;2023-05-18T00:27:55;14.40;99.90
25991;DHT22;13779;-33.886;151.198;2023-05-18T00:30:25;14.40;99.90
25991;DHT22;13779;-33.886;151.198;2023-05-18T00:32:56;14.40;99.90
25991;DHT22;13779;-33.886;151.198;2023-05-18T00:35:26;14.50;99.90
25991;DHT22;13779;-33.886;151.198;2023-05-18T00:37:56;14.50;99.90
25991;DHT22;13779;-33.886;151.198;2023-05-18T00:40:30;14.60;99.90
25991;DHT22;13779;-33.886;151.198;2023-05-18T00:43:01;14.60;99.90
25991;DHT22;13779;-33.886;151.198;2023-05-18T00:45:31;14.70;99.90
25991;DHT22;13779;-33.886;151.198;2023-05-18T00:48:02;14.70;99.90
25991;DHT22;13779;-33.886;151.198;2023-05-18T00:50:32;14.80;99.90
25991;DHT22;13779;-33.886;151.198;2023-05-18T00:53:03;14.90;99.90
25991;DHT22;13779;-33.886;151.198;2023-05-18T00:55:34;15.00;99.90
25991;DHT22;13779;-33.886;151.198;2023-05-18T00:58:04;15.10;99.90
25991;DHT22;13779;-33.886;151.198;2023-05-18T01:00:35;15.20;99.90
25991;DHT22;13779;-33.886;151.198;2023-05-18T01:03:05;15.20;99.90
25991;DHT22;13779;-33.886;151.198;2023-05-18T01:05:40;15.40;99.90
25991;DHT22;13779;-33.886;151.198;2023-05-18T01:08:10;15.50;99.90
25991;DHT22;13779;-33.886;151.198;2023-05-18T01:10:41;15.60;99.90
25991;DHT22;13779;-33.886;151.198;2023-05-18T01:16:22;15.50;99.90
25991;DHT22;13779;-33.886;151.198;2023-05-18T01:19:39;15.50;99.90
25991;DHT22;13779;-33.886;151.198;2023-05-18T01:26:00;15.80;99.90
25991;DHT22;13779;-33.886;151.198;2023-05-18T01:28:36;15.90;99.90
25991;DHT22;13779;-33.886;151.198;2023-05-18T01:31:06;15.90;99.90
25991;DHT22;13779;-33.886;151.198;2023-05-18T01:33:37;15.90;99.90
25991;DHT22;13779;-33.886;151.198;2023-05-18T01:36:08;15.80;99.90
25991;DHT22;13779;-33.886;151.198;2023-05-18T01:38:39;15.80;99.90
25991;DHT22;13779;-33.886;151.198;2023-05-18T01:41:23;15.90;99.90
25991;DHT22;13779;-33.886;151.198;2023-05-18T01:44:17;16.00;99.90
25991;DHT22;13779;-33.886;151.198;2023-05-18T01:52:36;16.10;99.90
25991;DHT22;13779;-33.886;151.198;2023-05-18T01:55:10;16.10;99.90
25991;DHT22;13779;-33.886;151.198;2023-05-18T01:57:46;16.10;99.90
25991;DHT22;13779;-33.886;151.198;2023-05-18T02:00:18;16.20;99.90
25991;DHT22;13779;-33.886;151.198;2023-05-18T02:02:49;16.10;99.90
25991;DHT22;13779;-33.886;151.198;2023-05-18T02:05:20;16.00;99.90
25991;DHT22;13779;-33.886;151.198;2023-05-18T02:07:53;15.90;99.90
25991;DHT22;13779;-33.886;151.198;2023-05-18T02:10:27;15.80;99.90
25991;DHT22;13779;-33.886;151.198;2023-05-18T02:12:57;15.80;99.90
25991;DHT22;13779;-33.886;151.198;2023-05-18T02:15:30;15.80;99.90
25991;DHT22;13779;-33.886;151.198;2023-05-18T02:18:03;15.80;99.90
25991;DHT22;13779;-33.886;151.198;2023-05-18T02:20:34;15.90;99.90
25991;DHT22;13779;-33.886;151.198;2023-05-18T02:23:06;16.00;99.90
25991;DHT22;13779;-33.886;151.198;2023-05-18T02:25:37;16.10;99.90
25991;DHT22;13779;-33.886;151.198;2023-05-18T02:28:08;16.20;99.90
25991;DHT22;13779;-33.886;151.198;2023-05-18T02:30:38;16.20;99.90
25991;DHT22;13779;-33.886;151.198;2023-05-18T02:33:08;16.20;99.90
25991;DHT22;13779;-33.886;151.198;2023-05-18T02:35:39;16.20;99.90
25991;DHT22;13779;-33.886;151.198;2023-05-18T02:38:09;16.20;99.90
25991;DHT22;13779;-33.886;151.198;2023-05-18T02:40:40;16.30;99.90
25991;DHT22;13779;-33.886;151.198;2023-05-18T02:43:10;16.20;99.90
25991;DHT22;13779;-33.886;151.198;2023-05-18T02:45:40;16.20;99.90
25991;DHT22;13779;-33.886;151.198;2023-05-18T02:48:11;16.20;99.90
25991;DHT22;13779;-33.886;151.198;2023-05-18T02:50:42;16.30;99.90
25991;DHT22;13779;-33.886;151.198;2023-05-18T02:53:15;16.30;99.90
25991;DHT22;13779;-33.886;151.198;2023-05-18T02:55:52;16.40;99.90
25991;DHT22;13779;-33.886;151.198;2023-05-18T02:58:25;16.40;99.90
25991;DHT22;13779;-33.886;151.198;2023-05-18T03:00:56;16.50;99.90
25991;DHT22;13779;-33.886;151.198;2023-05-18T03:03:28;16.50;99.90
25991;DHT22;13779;-33.886;151.198;2023-05-18T03:06:00;16.60;99.90
25991;DHT22;13779;-33.886;151.198;2023-05-18T03:08:34;16.60;99.90
25991;DHT22;13779;-33.886;151.198;2023-05-18T03:11:12;16.50;99.90
25991;DHT22;13779;-33.886;151.198;2023-05-18T03:13:42;16.40;99.90
25991;DHT22;13779;-33.886;151.198;2023-05-18T03:16:13;16.20;99.90
25991;DHT22;13779;-33.886;151.198;2023-05-18T03:18:44;16.20;99.90
25991;DHT22;13779;-33.886;151.198;2023-05-18T03:21:14;16.20;99.90
25991;DHT22;13779;-33.886;151.198;2023-05-18T03:23:45;16.20;99.90
25991;DHT22;13779;-33.886;151.198;2023-05-18T03:26:15;16.10;99.90
25991;DHT22;13779;-33.886;151.198;2023-05-18T03:28:46;16.10;99.90
25991;DHT22;13779;-33.886;151.198;2023-05-18T03:31:19;16.10;99.90
25991;DHT22;13779;-33.886;151.198;2023-05-18T03:33:50;16.10;99.90
25991;DHT22;13779;-33.886;151.198;2023-05-18T03:36:29;16.00;99.90
25991;DHT22;13779;-33.886;151.198;2023-05-18T03:38:59;16.00;99.90
25991;DHT22;13779;-33.886;151.198;2023-05-18T03:41:29;16.00;99.90
25991;DHT22;13779;-33.886;151.198;2023-05-18T03:44:01;16.00;99.90
25991;DHT22;13779;-33.886;151.198;2023-05-18T03:46:31;16.10;99.90
25991;DHT22;13779;-33.886;151.198;2023-05-18T03:49:01;16.10;99.90
25991;DHT22;13779;-33.886;151.198;2023-05-18T03:51:34;16.10;99.90
25991;DHT22;13779;-33.886;151.198;2023-05-18T03:54:05;16.20;99.90
25991;DHT22;13779;-33.886;151.198;2023-05-18T03:56:36;16.20;99.90
25991;DHT22;13779;-33.886;151.198;2023-05-18T03:59:07;16.20;99.90
25991;DHT22;13779;-33.886;151.198;2023-05-18T04:01:41;16.20;99.90
25991;DHT22;13779;-33.886;151.198;2023-05-18T04:04:13;16.10;99.90
25991;DHT22;13779;-33.886;151.198;2023-05-18T04:06:47;16.10;99.90
25991;DHT22;13779;-33.886;151.198;2023-05-18T04:09:17;16.10;99.90
25991;DHT22;13779;-33.886;151.198;2023-05-18T04:11:49;16.30;99.90
25991;DHT22;13779;-33.886;151.198;2023-05-18T04:14:22;16.40;99.90
25991;DHT22;13779;-33.886;151.198;2023-05-18T04:16:53;16.50;99.90
25991;DHT22;13779;-33.886;151.198;2023-05-18T04:19:27;16.60;99.90
25991;DHT22;13779;-33.886;151.198;2023-05-18T04:22:02;16.60;99.90
25991;DHT22;13779;-33.886;151.198;2023-05-18T04:24:34;16.70;99.90
25991;DHT22;13779;-33.886;151.198;2023-05-18T04:27:05;16.80;99.90
25991;DHT22;13779;-33.886;151.198;2023-05-18T04:29:35;16.80;99.90
25991;DHT22;13779;-33.886;151.198;2023-05-18T04:32:08;16.80;99.90
25991;DHT22;13779;-33.886;151.198;2023-05-18T04:34:39;16.70;99.90
25991;DHT22;13779;-33.886;151.198;2023-05-18T04:37:11;16.70;99.90
25991;DHT22;13779;-33.886;151.198;2023-05-18T04:39:42;16.60;99.90
25991;DHT22;13779;-33.886;151.198;2023-05-18T04:42:13;16.60;99.90
25991;DHT22;13779;-33.886;151.198;2023-05-18T04:44:47;16.60;99.90
25991;DHT22;13779;-33.886;151.198;2023-05-18T04:47:21;16.60;99.90
25991;DHT22;13779;-33.886;151.198;2023-05-18T04:49:52;16.70;99.90
25991;DHT22;13779;-33.886;151.198;2023-05-18T04:52:24;16.70;99.90
25991;DHT22;13779;-33.886;151.198;2023-05-18T04:55:02;16.70;99.90
25991;DHT22;13779;-33.886;151.198;2023-05-18T04:57:33;16.70;99.90
25991;DHT22;13779;-33.886;151.198;2023-05-18T05:00:11;16.70;99.90
25991;DHT22;13779;-33.886;151.198;2023-05-18T05:02:41;16.60;99.90
25991;DHT22;13779;-33.886;151.198;2023-05-18T05:05:12;16.50;99.90
25991;DHT22;13779;-33.886;151.198;2023-05-18T05:07:48;16.40;99.90
25991;DHT22;13779;-33.886;151.198;2023-05-18T05:10:23;16.30;99.90
25991;DHT22;13779;-33.886;151.198;2023-05-18T05:12:54;16.30;99.90
25991;DHT22;13779;-33.886;151.198;2023-05-18T05:15:31;16.30;99.90
25991;DHT22;13779;-33.886;151.198;2023-05-18T05:18:05;16.20;99.90
25991;DHT22;13779;-33.886;151.198;2023-05-18T05:20:37;16.20;99.90
25991;DHT22;13779;-33.886;151.198;2023-05-18T05:23:10;16.10;99.90
25991;DHT22;13779;-33.886;151.198;2023-05-18T05:25:41;16.20;99.90
25991;DHT22;13779;-33.886;151.198;2023-05-18T05:28:20;16.20;99.90
25991;DHT22;13779;-33.886;151.198;2023-05-18T05:30:53;16.10;99.90
25991;DHT22;13779;-33.886;151.198;2023-05-18T05:33:24;16.20;99.90
25991;DHT22;13779;-33.886;151.198;2023-05-18T05:35:55;16.20;99.90
25991;DHT22;13779;-33.886;151.198;2023-05-18T05:38:26;16.20;99.90
25991;DHT22;13779;-33.886;151.198;2023-05-18T05:41:01;16.30;99.90
25991;DHT22;13779;-33.886;151.198;2023-05-18T05:43:35;16.30;99.90
25991;DHT22;13779;-33.886;151.198;2023-05-18T05:46:05;16.20;99.90
25991;DHT22;13779;-33.886;151.198;2023-05-18T05:48:36;16.20;99.90
25991;DHT22;13779;-33.886;151.198;2023-05-18T05:51:07;16.10;99.90
25991;DHT22;13779;-33.886;151.198;2023-05-18T05:53:37;16.10;99.90
25991;DHT22;13779;-33.886;151.198;2023-05-18T05:56:08;16.00;99.90
25991;DHT22;13779;-33.886;151.198;2023-05-18T05:58:42;16.00;99.90
25991;DHT22;13779;-33.886;151.198;2023-05-18T06:01:13;16.10;99.90
25991;DHT22;13779;-33.886;151.198;2023-05-18T06:03:44;16.20;99.90
25991;DHT22;13779;-33.886;151.198;2023-05-18T06:06:15;16.30;99.90
25991;DHT22;13779;-33.886;151.198;2023-05-18T06:08:49;16.30;99.90
25991;DHT22;13779;-33.886;151.198;2023-05-18T06:11:27;16.30;99.90
25991;DHT22;13779;-33.886;151.198;2023-05-18T06:13:57;16.30;99.90
25991;DHT22;13779;-33.886;151.198;2023-05-18T06:16:28;16.50;99.90
25991;DHT22;13779;-33.886;151.198;2023-05-18T06:19:05;16.30;99.90
25991;DHT22;13779;-33.886;151.198;2023-05-18T06:21:40;16.10;99.90
25991;DHT22;13779;-33.886;151.198;2023-05-18T06:24:10;16.00;99.90
25991;DHT22;13779;-33.886;151.198;2023-05-18T06:26:41;15.90;99.90
25991;DHT22;13779;-33.886;151.198;2023-05-18T06:29:14;15.80;99.90
25991;DHT22;13779;-33.886;151.198;2023-05-18T06:31:44;15.80;99.90
25991;DHT22;13779;-33.886;151.198;2023-05-18T06:34:15;15.70;99.90
25991;DHT22;13779;-33.886;151.198;2023-05-18T06:36:46;15.70;99.90
25991;DHT22;13779;-33.886;151.198;2023-05-18T06:39:19;15.70;99.90
25991;DHT22;13779;-33.886;151.198;2023-05-18T06:41:49;15.70;99.90
25991;DHT22;13779;-33.886;151.198;2023-05-18T06:44:20;15.70;99.90
25991;DHT22;13779;-33.886;151.198;2023-05-18T06:46:53;15.60;99.90
25991;DHT22;13779;-33.886;151.198;2023-05-18T06:49:24;15.60;99.90
25991;DHT22;13779;-33.886;151.198;2023-05-18T06:51:54;15.60;99.90
25991;DHT22;13779;-33.886;151.198;2023-05-18T06:54:25;15.50;99.90
25991;DHT22;13779;-33.886;151.198;2023-05-18T06:56:57;15.50;99.90
25991;DHT22;13779;-33.886;151.198;2023-05-18T06:59:31;15.50;99.90
25991;DHT22;13779;-33.886;151.198;2023-05-18T07:02:12;15.50;99.90
25991;DHT22;13779;-33.886;151.198;2023-05-18T07:04:44;15.40;99.90
25991;DHT22;13779;-33.886;151.198;2023-05-18T07:07:17;15.40;99.90
25991;DHT22;13779;-33.886;151.198;2023-05-18T07:09:47;15.40;99.90
25991;DHT22;13779;-33.886;151.198;2023-05-18T07:12:23;15.40;99.90
25991;DHT22;13779;-33.886;151.198;2023-05-18T07:14:55;15.40;99.90
25991;DHT22;13779;-33.886;151.198;2023-05-18T07:17:25;15.40;99.90
25991;DHT22;13779;-33.886;151.198;2023-05-18T07:19:56;15.40;99.90
25991;DHT22;13779;-33.886;151.198;2023-05-18T07:22:30;15.40;99.90
25991;DHT22;13779;-33.886;151.198;2023-05-18T07:25:00;15.40;99.90
25991;DHT22;13779;-33.886;151.198;2023-05-18T07:27:30;15.40;99.90
25991;DHT22;13779;-33.886;151.198;2023-05-18T07:30:01;15.40;99.90
25991;DHT22;13779;-33.886;151.198;2023-05-18T07:32:32;15.40;99.90
25991;DHT22;13779;-33.886;151.198;2023-05-18T07:35:05;15.40;99.90
25991;DHT22;13779;-33.886;151.198;2023-05-18T07:37:36;15.40;99.90
25991;DHT22;13779;-33.886;151.198;2023-05-18T07:40:07;15.40;99.90
25991;DHT22;13779;-33.886;151.198;2023-05-18T07:42:39;15.40;99.90
25991;DHT22;13779;-33.886;151.198;2023-05-18T07:45:14;15.40;99.90
25991;DHT22;13779;-33.886;151.198;2023-05-18T07:47:49;15.40;99.90
25991;DHT22;13779;-33.886;151.198;2023-05-18T07:50:26;15.40;99.90
25991;DHT22;13779;-33.886;151.198;2023-05-18T07:53:04;15.40;99.90
25991;DHT22;13779;-33.886;151.198;2023-05-18T07:55:36;15.30;99.90
25991;DHT22;13779;-33.886;151.198;2023-05-18T07:58:08;15.30;99.90
25991;DHT22;13779;-33.886;151.198;2023-05-18T08:00:48;15.20;99.90
25991;DHT22;13779;-33.886;151.198;2023-05-18T08:03:20;15.20;99.90
25991;DHT22;13779;-33.886;151.198;2023-05-18T08:05:51;15.20;99.90
25991;DHT22;13779;-33.886;151.198;2023-05-18T08:08:22;15.20;99.90
25991;DHT22;13779;-33.886;151.198;2023-05-18T08:10:58;15.20;99.90
25991;DHT22;13779;-33.886;151.198;2023-05-18T08:13:29;15.10;99.90
25991;DHT22;13779;-33.886;151.198;2023-05-18T08:16:05;15.10;99.90
25991;DHT22;13779;-33.886;151.198;2023-05-18T08:18:42;15.10;99.90
25991;DHT22;13779;-33.886;151.198;2023-05-18T08:21:22;15.20;99.90
25991;DHT22;13779;-33.886;151.198;2023-05-18T08:23:53;15.20;99.90
25991;DHT22;13779;-33.886;151.198;2023-05-18T08:26:24;15.20;99.90
25991;DHT22;13779;-33.886;151.198;2023-05-18T08:28:55;15.20;99.90
25991;DHT22;13779;-33.886;151.198;2023-05-18T08:31:26;15.20;99.90
25991;DHT22;13779;-33.886;151.198;2023-05-18T08:34:04;15.20;99.90
25991;DHT22;13779;-33.886;151.198;2023-05-18T08:36:36;15.10;99.90
25991;DHT22;13779;-33.886;151.198;2023-05-18T08:39:06;15.20;99.90
25991;DHT22;13779;-33.886;151.198;2023-05-18T08:45:11;15.20;99.90
25991;DHT22;13779;-33.886;151.198;2023-05-18T08:47:31;15.20;99.90
25991;DHT22;13779;-33.886;151.198;2023-05-18T08:50:06;15.20;99.90
25991;DHT22;13779;-33.886;151.198;2023-05-18T08:52:45;15.20;99.90
25991;DHT22;13779;-33.886;151.198;2023-05-18T08:55:16;15.20;99.90
25991;DHT22;13779;-33.886;151.198;2023-05-18T08:57:51;15.20;99.90
25991;DHT22;13779;-33.886;151.198;2023-05-18T09:00:27;15.20;99.90
25991;DHT22;13779;-33.886;151.198;2023-05-18T09:03:07;15.20;99.90
25991;DHT22;13779;-33.886;151.198;2023-05-18T09:05:41;15.10;99.90
25991;DHT22;13779;-33.886;151.198;2023-05-18T09:08:12;15.00;99.90
25991;DHT22;13779;-33.886;151.198;2023-05-18T09:10:47;14.90;99.90
25991;DHT22;13779;-33.886;151.198;2023-05-18T09:13:19;14.90;99.90
25991;DHT22;13779;-33.886;151.198;2023-05-18T09:15:50;14.90;99.90
25991;DHT22;13779;-33.886;151.198;2023-05-18T09:18:20;14.80;99.90
25991;DHT22;13779;-33.886;151.198;2023-05-18T09:20:53;14.80;99.90
25991;DHT22;13779;-33.886;151.198;2023-05-18T09:23:24;14.70;99.90
25991;DHT22;13779;-33.886;151.198;2023-05-18T09:25:55;14.60;99.90
25991;DHT22;13779;-33.886;151.198;2023-05-18T09:28:35;14.60;99.90
25991;DHT22;13779;-33.886;151.198;2023-05-18T09:31:15;14.60;99.90
25991;DHT22;13779;-33.886;151.198;2023-05-18T09:33:47;14.50;99.90
25991;DHT22;13779;-33.886;151.198;2023-05-18T09:36:24;14.40;99.90
25991;DHT22;13779;-33.886;151.198;2023-05-18T09:38:55;14.40;99.90
25991;DHT22;13779;-33.886;151.198;2023-05-18T09:41:27;14.30;99.90
25991;DHT22;13779;-33.886;151.198;2023-05-18T09:43:59;14.30;99.90
25991;DHT22;13779;-33.886;151.198;2023-05-18T09:46:40;14.30;99.90
25991;DHT22;13779;-33.886;151.198;2023-05-18T09:49:11;14.20;99.90
25991;DHT22;13779;-33.886;151.198;2023-05-18T09:51:42;14.20;99.90
25991;DHT22;13779;-33.886;151.198;2023-05-18T09:54:17;14.20;99.90
25991;DHT22;13779;-33.886;151.198;2023-05-18T09:56:54;14.20;99.90
25991;DHT22;13779;-33.886;151.198;2023-05-18T09:59:37;14.20;99.90
25991;DHT22;13779;-33.886;151.198;2023-05-18T10:02:11;14.20;99.90
25991;DHT22;13779;-33.886;151.198;2023-05-18T10:04:44;14.30;99.90
25991;DHT22;13779;-33.886;151.198;2023-05-18T10:07:16;14.20;99.90
25991;DHT22;13779;-33.886;151.198;2023-05-18T10:10:00;14.20;99.90
25991;DHT22;13779;-33.886;151.198;2023-05-18T10:12:33;14.30;99.90
25991;DHT22;13779;-33.886;151.198;2023-05-18T10:15:17;14.30;99.90
25991;DHT22;13779;-33.886;151.198;2023-05-18T10:17:50;14.30;99.90
25991;DHT22;13779;-33.886;151.198;2023-05-18T10:20:22;14.30;99.90
25991;DHT22;13779;-33.886;151.198;2023-05-18T10:22:56;14.30;99.90
25991;DHT22;13779;-33.886;151.198;2023-05-18T10:25:29;14.40;99.90
25991;DHT22;13779;-33.886;151.198;2023-05-18T10:28:04;14.40;99.90
25991;DHT22;13779;-33.886;151.198;2023-05-18T10:30:36;14.40;99.90
25991;DHT22;13779;-33.886;151.198;2023-05-18T10:33:10;14.40;99.90
25991;DHT22;13779;-33.886;151.198;2023-05-18T10:35:52;14.40;99.90
25991;DHT22;13779;-33.886;151.198;2023-05-18T10:38:27;14.40;99.90
25991;DHT22;13779;-33.886;151.198;2023-05-18T10:41:00;14.30;99.90
25991;DHT22;13779;-33.886;151.198;2023-05-18T10:43:33;14.30;99.90
25991;DHT22;13779;-33.886;151.198;2023-05-18T10:46:06;14.30;99.90
25991;DHT22;13779;-33.886;151.198;2023-05-18T10:48:38;14.30;99.90
25991;DHT22;13779;-33.886;151.198;2023-05-18T10:51:14;14.20;99.90
25991;DHT22;13779;-33.886;151.198;2023-05-18T10:53:46;14.30;99.90
25991;DHT22;13779;-33.886;151.198;2023-05-18T10:56:17;14.20;99.90
25991;DHT22;13779;-33.886;151.198;2023-05-18T10:58:48;14.30;99.90
25991;DHT22;13779;-33.886;151.198;2023-05-18T11:01:18;14.30;99.90
25991;DHT22;13779;-33.886;151.198;2023-05-18T11:03:49;14.20;99.90
25991;DHT22;13779;-33.886;151.198;2023-05-18T11:06:23;14.20;99.90
25991;DHT22;13779;-33.886;151.198;2023-05-18T11:08:53;14.20;99.90
25991;DHT22;13779;-33.886;151.198;2023-05-18T11:11:24;14.20;99.90
25991;DHT22;13779;-33.886;151.198;2023-05-18T11:14:02;14.20;99.90
25991;DHT22;13779;-33.886;151.198;2023-05-18T11:16:34;14.10;99.90
25991;DHT22;13779;-33.886;151.198;2023-05-18T11:19:08;14.10;99.90
25991;DHT22;13779;-33.886;151.198;2023-05-18T11:24:30;14.00;99.90
25991;DHT22;13779;-33.886;151.198;2023-05-18T11:27:13;14.00;99.90
25991;DHT22;13779;-33.886;151.198;2023-05-18T11:29:44;14.00;99.90
25991;DHT22;13779;-33.886;151.198;2023-05-18T11:32:26;14.00;99.90
25991;DHT22;13779;-33.886;151.198;2023-05-18T11:34:58;14.00;99.90
25991;DHT22;13779;-33.886;151.198;2023-05-18T11:40:10;13.90;99.90
25991;DHT22;13779;-33.886;151.198;2023-05-18T11:42:41;13.80;99.90
25991;DHT22;13779;-33.886;151.198;2023-05-18T11:45:12;13.80;99.90
25991;DHT22;13779;-33.886;151.198;2023-05-18T11:47:43;13.80;99.90
25991;DHT22;13779;-33.886;151.198;2023-05-18T11:50:17;13.70;99.90
25991;DHT22;13779;-33.886;151.198;2023-05-18T11:52:52;13.60;99.90
25991;DHT22;13779;-33.886;151.198;2023-05-18T11:55:22;13.60;99.90
25991;DHT22;13779;-33.886;151.198;2023-05-18T11:58:07;13.60;99.90
25991;DHT22;13779;-33.886;151.198;2023-05-18T12:00:41;13.50;99.90
25991;DHT22;13779;-33.886;151.198;2023-05-18T12:03:12;13.50;99.90
25991;DHT22;13779;-33.886;151.198;2023-05-18T12:05:43;13.50;99.90
25991;DHT22;13779;-33.886;151.198;2023-05-18T12:08:18;13.40;99.90
25991;DHT22;13779;-33.886;151.198;2023-05-18T12:10:53;13.40;99.90
25991;DHT22;13779;-33.886;151.198;2023-05-18T12:13:27;13.40;99.90
25991;DHT22;13779;-33.886;151.198;2023-05-18T12:15:59;13.30;99.90
25991;DHT22;13779;-33.886;151.198;2023-05-18T12:18:32;13.30;99.90
25991;DHT22;13779;-33.886;151.198;2023-05-18T12:21:08;13.30;99.90
25991;DHT22;13779;-33.886;151.198;2023-05-18T12:23:38;13.30;99.90
25991;DHT22;13779;-33.886;151.198;2023-05-18T12:26:13;13.20;99.90
25991;DHT22;13779;-33.886;151.198;2023-05-18T12:28:47;13.30;99.90
25991;DHT22;13779;-33.886;151.198;2023-05-18T12:31:25;13.30;99.90
25991;DHT22;13779;-33.886;151.198;2023-05-18T12:33:56;13.20;99.90
25991;DHT22;13779;-33.886;151.198;2023-05-18T12:36:29;13.30;99.90
25991;DHT22;13779;-33.886;151.198;2023-05-18T12:39:02;13.30;99.90
25991;DHT22;13779;-33.886;151.198;2023-05-18T12:41:33;13.30;99.90
25991;DHT22;13779;-33.886;151.198;2023-05-18T12:44:07;13.20;99.90
25991;DHT22;13779;-33.886;151.198;2023-05-18T12:46:45;13.20;99.90
25991;DHT22;13779;-33.886;151.198;2023-05-18T12:49:21;13.10;99.90
25991;DHT22;13779;-33.886;151.198;2023-05-18T12:51:56;13.10;99.90
25991;DHT22;13779;-33.886;151.198;2023-05-18T12:54:30;13.10;99.90
25991;DHT22;13779;-33.886;151.198;2023-05-18T12:57:06;13.10;99.90
25991;DHT22;13779;-33.886;151.198;2023-05-18T12:59:47;13.10;99.90
25991;DHT22;13779;-33.886;151.198;2023-05-18T13:02:33;13.00;99.90
25991;DHT22;13779;-33.886;151.198;2023-05-18T13:05:09;12.90;99.90
25991;DHT22;13779;-33.886;151.198;2023-05-18T13:07:45;12.90;99.90
25991;DHT22;13779;-33.886;151.198;2023-05-18T13:10:21;12.90;99.90
25991;DHT22;13779;-33.886;151.198;2023-05-18T13:12:54;13.00;99.90
25991;DHT22;13779;-33.886;151.198;2023-05-18T13:15:38;12.90;99.90
25991;DHT22;13779;-33.886;151.198;2023-05-18T13:18:10;12.90;99.90
25991;DHT22;13779;-33.886;151.198;2023-05-18T13:20:50;12.90;99.90
25991;DHT22;13779;-33.886;151.198;2023-05-18T13:23:32;12.90;99.90
25991;DHT22;13779;-33.886;151.198;2023-05-18T13:26:06;12.90;99.90
25991;DHT22;13779;-33.886;151.198;2023-05-18T13:28:49;12.90;99.90
25991;DHT22;13779;-33.886;151.198;2023-05-18T13:31:21;12.90;99.90
25991;DHT22;13779;-33.886;151.198;2023-05-18T13:33:51;12.90;99.90
25991;DHT22;13779;-33.886;151.198;2023-05-18T13:36:27;12.90;99.90
25991;DHT22;13779;-33.886;151.198;2023-05-18T13:39:02;13.00;99.90
25991;DHT22;13779;-33.886;151.198;2023-05-18T13:41:36;13.00;99.90
25991;DHT22;13779;-33.886;151.198;2023-05-18T13:44:06;13.00;99.90
25991;DHT22;13779;-33.886;151.198;2023-05-18T13:46:40;12.90;99.90
25991;DHT22;13779;-33.886;151.198;2023-05-18T13:49:11;12.80;99.90
25991;DHT22;13779;-33.886;151.198;2023-05-18T13:51:42;12.90;99.90
25991;DHT22;13779;-33.886;151.198;2023-05-18T13:54:13;13.00;99.90
25991;DHT22;13779;-33.886;151.198;2023-05-18T13:56:44;13.00;99.90
25991;DHT22;13779;-33.886;151.198;2023-05-18T13:59:20;12.90;99.90
25991;DHT22;13779;-33.886;151.198;2023-05-18T14:01:52;12.80;99.90
25991;DHT22;13779;-33.886;151.198;2023-05-18T14:04:23;12.80;99.90
25991;DHT22;13779;-33.886;151.198;2023-05-18T14:06:59;12.80;99.90
25991;DHT22;13779;-33.886;151.198;2023-05-18T14:09:33;12.80;99.90
25991;DHT22;13779;-33.886;151.198;2023-05-18T14:12:04;12.80;99.90
25991;DHT22;13779;-33.886;151.198;2023-05-18T14:14:38;12.80;99.90
25991;DHT22;13779;-33.886;151.198;2023-05-18T14:17:10;12.80;99.90
25991;DHT22;13779;-33.886;151.198;2023-05-18T14:19:51;12.80;99.90
25991;DHT22;13779;-33.886;151.198;2023-05-18T14:22:29;12.80;99.90
25991;DHT22;13779;-33.886;151.198;2023-05-18T14:25:00;12.70;99.90
25991;DHT22;13779;-33.886;151.198;2023-05-18T14:27:33;12.70;99.90
25991;DHT22;13779;-33.886;151.198;2023-05-18T14:30:08;12.70;99.90
25991;DHT22;13779;-33.886;151.198;2023-05-18T14:32:39;12.80;99.90
25991;DHT22;13779;-33.886;151.198;2023-05-18T14:35:13;12.80;99.90
25991;DHT22;13779;-33.886;151.198;2023-05-18T14:37:44;12.80;99.90
25991;DHT22;13779;-33.886;151.198;2023-05-18T14:40:18;12.80;99.90
25991;DHT22;13779;-33.886;151.198;2023-05-18T14:42:57;12.70;99.90
25991;DHT22;13779;-33.886;151.198;2023-05-18T14:45:28;12.60;99.90
25991;DHT22;13779;-33.886;151.198;2023-05-18T14:48:01;12.50;99.90
25991;DHT22;13779;-33.886;151.198;2023-05-18T14:50:37;12.50;99.90
25991;DHT22;13779;-33.886;151.198;2023-05-18T14:53:07;12.50;99.90
25991;DHT22;13779;-33.886;151.198;2023-05-18T14:55:37;12.50;99.90
25991;DHT22;13779;-33.886;151.198;2023-05-18T14:58:08;12.50;99.90
25991;DHT22;13779;-33.886;151.198;2023-05-18T15:00:43;12.40;99.90
25991;DHT22;13779;-33.886;151.198;2023-05-18T15:03:13;12.40;99.90
25991;DHT22;13779;-33.886;151.198;2023-05-18T15:05:44;12.40;99.90
25991;DHT22;13779;-33.886;151.198;2023-05-18T15:08:15;12.40;99.90
25991;DHT22;13779;-33.886;151.198;2023-05-18T15:10:45;12.40;99.90
25991;DHT22;13779;-33.886;151.198;2023-05-18T15:13:18;12.50;99.90
25991;DHT22;13779;-33.886;151.198;2023-05-18T15:15:48;12.50;99.90
25991;DHT22;13779;-33.886;151.198;2023-05-18T15:18:19;12.50;99.90
25991;DHT22;13779;-33.886;151.198;2023-05-18T15:20:49;12.50;99.90
25991;DHT22;13779;-33.886;151.198;2023-05-18T15:23:22;12.40;99.90
25991;DHT22;13779;-33.886;151.198;2023-05-18T15:25:54;12.50;99.90
25991;DHT22;13779;-33.886;151.198;2023-05-18T15:28:25;12.50;99.90
25991;DHT22;13779;-33.886;151.198;2023-05-18T15:30:55;12.50;99.90
25991;DHT22;13779;-33.886;151.198;2023-05-18T15:33:25;12.50;99.90
25991;DHT22;13779;-33.886;151.198;2023-05-18T15:35:58;12.50;99.90
25991;DHT22;13779;-33.886;151.198;2023-05-18T15:38:29;12.50;99.90
25991;DHT22;13779;-33.886;151.198;2023-05-18T15:40:59;12.50;99.90
25991;DHT22;13779;-33.886;151.198;2023-05-18T15:43:32;12.50;99.90